Time;durP1;ratioP1;P1;durP2;ratioP2;P2;SDS_P1;SDS_P2;PMS_P1;PMS_P2;Temp;Humidity;BMP_temperature;BMP_pressure;BME280_temperature;BME280_humidity;BME280_pressure;Samples;Min_cycle;Max_cycle;Signal;HPM_P1;HPM_P2
2022/04/09 00:01:02;;;;;;;5.38;1.75;;;4.40;99.90;;;;;;5071266;28;20135;-86
2022/04/09 00:03:27;;;;;;;9.20;1.17;;;4.50;99.90;;;;;;5068637;28;20040;-86
2022/04/09 00:05:53;;;;;;;6.72;1.55;;;4.60;99.90;;;;;;5075650;28;20149;-86
2022/04/09 00:08:18;;;;;;;9.02;1.88;;;4.70;99.90;;;;;;5073791;28;20040;-86
2022/04/09 00:10:44;;;;;;;6.07;1.40;;;4.70;99.90;;;;;;5073761;28;20040;-87
2022/04/09 00:13:10;;;;;;;7.30;1.85;;;4.70;99.90;;;;;;5075552;28;20068;-86
2022/04/09 00:15:36;;;;;;;6.78;2.25;;;4.70;99.90;;;;;;5073974;28;20059;-86
2022/04/09 00:18:02;;;;;;;9.00;1.85;;;4.60;99.90;;;;;;5074277;28;20040;-86
2022/04/09 00:20:28;;;;;;;6.30;1.70;;;4.60;99.90;;;;;;5074224;28;20036;-86
2022/04/09 00:22:53;;;;;;;5.30;1.80;;;4.60;99.90;;;;;;5056702;28;20098;-86
2022/04/09 00:25:23;;;;;;;7.55;1.80;;;4.50;99.90;;;;;;5074324;28;20040;-87
2022/04/09 00:27:50;;;;;;;6.68;2.08;;;4.40;99.90;;;;;;5073995;28;20044;-86
2022/04/09 00:30:15;;;;;;;6.20;2.17;;;4.30;99.90;;;;;;5069423;28;20390;-87
2022/04/09 00:32:41;;;;;;;6.45;1.55;;;4.30;99.90;;;;;;5055373;28;20037;-86
2022/04/09 00:35:07;;;;;;;7.00;2.08;;;4.20;99.90;;;;;;5073321;28;20059;-86
2022/04/09 00:37:41;;;;;;;8.23;1.73;;;4.20;99.90;;;;;;5069142;28;20045;-86
2022/04/09 00:40:07;;;;;;;8.40;1.67;;;4.20;99.90;;;;;;5063958;28;20029;-87
2022/04/09 00:42:33;;;;;;;9.93;1.75;;;4.10;99.90;;;;;;5071919;28;20075;-86
2022/04/09 00:44:58;;;;;;;6.57;1.48;;;4.10;99.90;;;;;;5071066;28;20098;-87
2022/04/09 00:47:24;;;;;;;9.00;1.70;;;4.10;99.90;;;;;;5071898;28;20047;-86
2022/04/09 00:49:49;;;;;;;4.55;1.70;;;4.10;99.90;;;;;;5064441;28;20115;-86
2022/04/09 00:52:18;;;;;;;5.50;1.60;;;4.00;99.90;;;;;;5059441;28;20564;-87
2022/04/09 00:54:46;;;;;;;6.60;1.75;;;4.10;99.90;;;;;;5071862;28;20048;-86
2022/04/09 00:57:14;;;;;;;4.25;1.48;;;4.20;99.90;;;;;;5063641;28;20056;-86
2022/04/09 00:59:48;;;;;;;3.97;1.67;;;4.30;99.90;;;;;;5065154;28;20044;-86
2022/04/09 01:02:14;;;;;;;7.15;1.48;;;4.40;99.90;;;;;;5067941;28;20060;-86
2022/04/09 01:04:43;;;;;;;5.55;1.50;;;4.50;99.90;;;;;;5072436;28;20055;-87
2022/04/09 01:07:09;;;;;;;6.43;1.52;;;4.60;99.90;;;;;;5072741;28;20390;-86
2022/04/09 01:09:35;;;;;;;5.88;1.38;;;4.60;99.90;;;;;;5041909;28;20048;-86
2022/04/09 01:12:02;;;;;;;5.45;1.60;;;4.60;99.90;;;;;;5067845;28;20048;-86
2022/04/09 01:14:29;;;;;;;4.90;1.55;;;4.50;99.90;;;;;;5067649;28;20044;-87
2022/04/09 01:16:55;;;;;;;7.63;1.50;;;4.60;99.90;;;;;;5072625;28;20131;-87
2022/04/09 01:19:20;;;;;;;3.42;1.10;;;4.40;99.90;;;;;;5074037;28;20033;-87
2022/04/09 01:21:47;;;;;;;6.22;1.88;;;4.50;99.90;;;;;;5070611;28;20036;-87
2022/04/09 01:24:13;;;;;;;2.88;0.95;;;4.50;99.90;;;;;;5053593;28;20055;-87
2022/04/09 01:26:38;;;;;;;3.53;1.02;;;4.40;99.90;;;;;;5074448;28;20394;-87
2022/04/09 01:29:04;;;;;;;3.65;1.10;;;4.40;99.90;;;;;;5064372;28;20705;-87
2022/04/09 01:31:30;;;;;;;5.20;1.60;;;4.30;99.90;;;;;;5067794;28;20045;-87
2022/04/09 01:33:57;;;;;;;4.63;1.30;;;4.20;99.90;;;;;;5069035;28;20091;-87
2022/04/09 01:36:22;;;;;;;7.53;1.35;;;4.20;99.90;;;;;;5067786;28;20041;-88
2022/04/09 01:38:48;;;;;;;4.30;1.00;;;4.20;99.90;;;;;;5071585;28;20036;-87
2022/04/09 01:41:13;;;;;;;2.28;0.90;;;4.10;99.90;;;;;;5074027;28;20496;-88
2022/04/09 01:43:41;;;;;;;3.95;1.15;;;4.10;99.90;;;;;;5072730;28;20037;-87
2022/04/09 01:46:07;;;;;;;6.25;1.08;;;4.10;99.90;;;;;;5061178;28;20597;-87
2022/04/09 01:48:32;;;;;;;4.40;1.25;;;4.00;99.90;;;;;;5059238;28;20044;-87
2022/04/09 01:50:58;;;;;;;6.65;1.20;;;3.90;99.90;;;;;;5072249;28;20048;-87
2022/04/09 01:53:24;;;;;;;2.85;0.85;;;3.90;99.90;;;;;;5062222;28;20054;-87
2022/04/09 01:55:49;;;;;;;4.68;1.30;;;3.90;99.90;;;;;;5066844;28;20116;-87
2022/04/09 01:58:15;;;;;;;3.15;1.20;;;3.80;99.90;;;;;;5070340;28;20034;-87
2022/04/09 02:00:41;;;;;;;3.53;1.38;;;3.80;99.90;;;;;;5060854;28;20037;-87
2022/04/09 02:03:06;;;;;;;6.28;1.30;;;3.70;99.90;;;;;;5067478;28;20045;-87
2022/04/09 02:05:34;;;;;;;2.95;1.10;;;3.70;99.90;;;;;;5071904;28;20041;-87
2022/04/09 02:08:00;;;;;;;5.93;1.60;;;3.60;99.90;;;;;;5043816;28;20481;-87
2022/04/09 02:10:27;;;;;;;9.90;1.50;;;3.60;99.90;;;;;;5071006;28;20043;-88
2022/04/09 02:12:53;;;;;;;5.35;1.27;;;3.50;99.90;;;;;;5066627;28;20037;-87
2022/04/09 02:15:19;;;;;;;9.57;1.70;;;3.50;99.90;;;;;;5048831;28;20040;-87
2022/04/09 02:17:44;;;;;;;5.63;1.40;;;3.50;99.90;;;;;;5067114;28;20039;-87
2022/04/09 02:20:13;;;;;;;8.82;2.00;;;3.40;99.90;;;;;;5073700;28;20066;-87
2022/04/09 02:22:40;;;;;;;9.90;1.70;;;3.60;99.90;;;;;;5067938;28;20044;-87
2022/04/09 02:25:08;;;;;;;8.75;1.63;;;3.50;99.90;;;;;;5066833;28;20040;-87
2022/04/09 02:27:34;;;;;;;5.40;1.52;;;3.50;99.90;;;;;;5072154;28;20044;-87
2022/04/09 02:30:01;;;;;;;4.57;1.35;;;3.60;99.90;;;;;;5068463;28;20047;-87
2022/04/09 02:32:26;;;;;;;8.27;1.63;;;3.70;99.90;;;;;;5071923;28;20044;-87
2022/04/09 02:34:53;;;;;;;8.25;2.20;;;3.80;99.90;;;;;;5071049;28;20522;-87
2022/04/09 02:37:20;;;;;;;5.88;1.65;;;3.70;99.90;;;;;;5073569;28;20055;-87
2022/04/09 02:39:45;;;;;;;5.88;1.50;;;3.70;99.90;;;;;;5070159;28;20045;-87
2022/04/09 02:42:12;;;;;;;5.40;1.70;;;3.70;99.90;;;;;;5070089;28;20048;-87
2022/04/09 02:44:39;;;;;;;5.60;1.50;;;3.60;99.90;;;;;;5055324;28;20083;-87
2022/04/09 02:47:05;;;;;;;5.88;1.55;;;3.60;99.90;;;;;;5072334;28;20143;-87
2022/04/09 02:49:30;;;;;;;7.15;1.50;;;3.50;99.90;;;;;;5072111;28;20529;-87
2022/04/09 02:51:56;;;;;;;7.68;1.85;;;3.50;99.90;;;;;;5063117;28;20487;-87
2022/04/09 02:54:21;;;;;;;8.43;1.60;;;3.40;99.90;;;;;;5067519;28;20045;-87
2022/04/09 02:56:47;;;;;;;4.53;1.50;;;3.40;99.90;;;;;;5072055;28;20490;-87
2022/04/09 02:59:13;;;;;;;4.88;1.48;;;3.30;99.90;;;;;;5069552;28;20063;-87
2022/04/09 03:01:46;;;;;;;7.57;1.50;;;3.30;99.90;;;;;;5052645;28;20116;-87
2022/04/09 03:04:13;;;;;;;7.72;1.60;;;3.40;99.90;;;;;;5071899;28;20032;-87
2022/04/09 03:06:39;;;;;;;8.20;1.70;;;3.30;99.90;;;;;;5070895;28;20040;-87
2022/04/09 03:09:05;;;;;;;7.68;1.55;;;3.30;99.90;;;;;;5047721;28;20036;-87
2022/04/09 03:11:31;;;;;;;8.65;2.10;;;3.30;99.90;;;;;;5071712;28;20089;-87
2022/04/09 03:13:56;;;;;;;7.63;1.63;;;3.40;99.90;;;;;;5072431;28;20044;-87
2022/04/09 03:16:22;;;;;;;8.35;2.05;;;3.40;99.90;;;;;;5074719;28;20052;-87
2022/04/09 03:18:48;;;;;;;5.68;1.38;;;3.30;99.90;;;;;;5057095;28;20491;-88
2022/04/09 03:21:14;;;;;;;8.40;1.33;;;3.30;99.90;;;;;;5071788;28;20056;-87
2022/04/09 03:23:39;;;;;;;5.78;1.40;;;3.30;99.90;;;;;;5075177;28;20051;-87
2022/04/09 03:26:05;;;;;;;5.38;1.50;;;3.40;99.90;;;;;;5076769;28;20037;-87
2022/04/09 03:28:31;;;;;;;5.80;1.65;;;3.40;99.90;;;;;;5076318;28;20025;-87
2022/04/09 03:30:57;;;;;;;9.68;2.00;;;3.50;99.90;;;;;;5075565;28;20037;-87
2022/04/09 03:33:23;;;;;;;5.18;1.35;;;3.70;99.90;;;;;;5075950;28;20048;-87
2022/04/09 03:35:48;;;;;;;7.15;2.05;;;3.60;99.90;;;;;;5076756;28;20096;-87
2022/04/09 03:38:15;;;;;;;8.02;1.40;;;3.50;99.90;;;;;;5074973;28;20450;-87
2022/04/09 03:40:42;;;;;;;9.35;2.22;;;3.50;99.90;;;;;;5075191;28;20045;-87
2022/04/09 03:43:10;;;;;;;6.35;1.30;;;3.50;99.90;;;;;;5056577;28;20437;-88
2022/04/09 03:45:35;;;;;;;9.98;1.77;;;3.50;99.90;;;;;;5072706;28;20083;-87
2022/04/09 03:48:05;;;;;;;8.73;1.85;;;3.40;99.90;;;;;;5076136;28;20124;-87
2022/04/09 03:50:31;;;;;;;5.35;1.33;;;3.40;99.90;;;;;;5070343;28;20037;-87
2022/04/09 03:52:57;;;;;;;6.78;1.80;;;3.30;99.90;;;;;;5058101;28;20078;-87
2022/04/09 03:55:22;;;;;;;10.20;1.98;;;3.30;99.90;;;;;;5074824;28;20386;-87
2022/04/09 03:57:48;;;;;;;7.03;1.50;;;3.30;99.90;;;;;;5041318;28;20498;-87
2022/04/09 04:00:14;;;;;;;4.70;1.55;;;3.30;99.90;;;;;;5067419;28;20115;-87
2022/04/09 04:02:40;;;;;;;9.85;1.50;;;3.40;99.90;;;;;;5067910;28;20044;-87
2022/04/09 04:05:07;;;;;;;9.40;1.50;;;3.40;99.90;;;;;;5071650;28;20028;-87
2022/04/09 04:07:33;;;;;;;6.72;1.30;;;3.40;99.90;;;;;;5074004;28;20048;-87
2022/04/09 04:10:10;;;;;;;6.63;1.10;;;3.40;99.90;;;;;;5053676;28;20040;-87
2022/04/09 04:12:36;;;;;;;7.32;1.20;;;3.30;99.90;;;;;;5068933;28;20041;-88
2022/04/09 04:15:02;;;;;;;5.10;1.33;;;3.30;99.90;;;;;;5073944;28;20041;-88
2022/04/09 04:17:38;;;;;;;7.70;1.42;;;3.30;99.90;;;;;;5073233;28;20044;-87
2022/04/09 04:20:05;;;;;;;5.38;1.30;;;3.30;99.90;;;;;;5077162;28;20044;-86
2022/04/09 04:22:31;;;;;;;5.45;1.15;;;3.30;99.90;;;;;;5070818;28;20049;-87
2022/04/09 04:24:57;;;;;;;8.60;1.38;;;3.30;99.90;;;;;;5074215;28;20040;-87
2022/04/09 04:27:22;;;;;;;6.20;1.30;;;3.30;99.90;;;;;;5073416;28;20440;-87
2022/04/09 04:29:48;;;;;;;5.80;1.33;;;3.30;99.90;;;;;;5075152;28;20477;-87
2022/04/09 04:32:13;;;;;;;5.22;1.08;;;3.40;99.90;;;;;;5075265;28;20478;-87
2022/04/09 04:34:39;;;;;;;4.85;1.00;;;3.30;99.90;;;;;;5074885;28;20488;-87
2022/04/09 04:37:04;;;;;;;3.53;1.10;;;3.40;99.90;;;;;;5073531;28;20829;-87
2022/04/09 04:39:31;;;;;;;8.07;1.38;;;3.40;99.90;;;;;;5074271;28;20055;-87
2022/04/09 04:41:57;;;;;;;7.32;1.00;;;3.50;99.90;;;;;;5060702;28;20066;-87
2022/04/09 04:44:24;;;;;;;5.60;1.00;;;3.60;99.90;;;;;;5061805;28;20041;-87
2022/04/09 04:46:49;;;;;;;5.68;1.10;;;3.60;99.90;;;;;;5073731;28;20037;-87
2022/04/09 04:49:16;;;;;;;6.95;1.20;;;3.70;99.90;;;;;;5073322;28;20170;-87
2022/04/09 04:51:42;;;;;;;7.13;1.90;;;3.50;99.90;;;;;;5053071;28;20044;-87
2022/04/09 04:54:07;;;;;;;6.63;1.65;;;3.50;99.90;;;;;;5048553;28;20102;-87
2022/04/09 04:56:33;;;;;;;4.88;1.45;;;3.50;99.90;;;;;;5056480;28;20044;-88
2022/04/09 04:58:58;;;;;;;4.57;0.98;;;3.50;99.90;;;;;;5070437;28;20052;-87
2022/04/09 05:01:24;;;;;;;3.17;1.17;;;3.50;99.90;;;;;;5060771;28;20474;-87
2022/04/09 05:03:50;;;;;;;4.85;1.15;;;3.40;99.90;;;;;;5053992;28;20044;-87
2022/04/09 05:06:16;;;;;;;5.55;1.55;;;3.50;99.90;;;;;;5068177;28;20123;-87
2022/04/09 05:08:42;;;;;;;5.25;1.00;;;3.50;99.90;;;;;;5064149;28;20064;-87
2022/04/09 05:11:08;;;;;;;5.78;1.20;;;3.50;99.90;;;;;;5049054;28;20084;-87
2022/04/09 05:13:33;;;;;;;4.93;1.30;;;3.60;99.90;;;;;;5064937;28;20029;-87
2022/04/09 05:15:59;;;;;;;8.10;1.58;;;3.70;99.90;;;;;;5040633;28;20044;-87
2022/04/09 05:18:24;;;;;;;5.85;1.00;;;3.70;99.90;;;;;;5071704;28;20139;-87
2022/04/09 05:20:50;;;;;;;4.63;2.10;;;3.70;99.90;;;;;;5067793;28;20040;-87
2022/04/09 05:23:16;;;;;;;5.10;1.40;;;3.80;99.90;;;;;;5072387;28;20135;-87
2022/04/09 05:25:42;;;;;;;3.25;0.82;;;3.80;99.90;;;;;;5050721;28;20044;-87
2022/04/09 05:28:10;;;;;;;4.25;1.10;;;3.90;99.90;;;;;;5066140;28;20051;-87
2022/04/09 05:30:36;;;;;;;7.07;1.23;;;3.80;99.90;;;;;;5073612;28;20561;-87
2022/04/09 05:33:03;;;;;;;7.30;1.30;;;3.80;99.90;;;;;;5072452;28;20072;-88
2022/04/09 05:35:29;;;;;;;8.75;1.60;;;3.90;99.90;;;;;;5069921;28;20045;-88
2022/04/09 05:37:54;;;;;;;6.28;1.48;;;4.00;99.90;;;;;;5055899;28;20045;-88
2022/04/09 05:40:21;;;;;;;8.13;1.48;;;4.00;99.90;;;;;;5064370;28;20382;-87
2022/04/09 05:42:47;;;;;;;7.28;1.20;;;4.10;99.90;;;;;;5062108;28;20510;-87
2022/04/09 05:45:13;;;;;;;7.78;1.67;;;4.10;99.90;;;;;;5073176;28;20157;-88
2022/04/09 05:47:43;;;;;;;7.47;1.45;;;4.10;99.90;;;;;;5072727;28;20041;-88
2022/04/09 05:50:12;;;;;;;6.22;1.23;;;4.20;99.90;;;;;;5055154;28;20047;-87
2022/04/09 05:52:38;;;;;;;6.72;1.30;;;4.40;99.90;;;;;;5039681;22;20148;-78
2022/04/09 05:55:05;;;;;;;5.70;1.73;;;5.00;99.90;;;;;;5056085;28;20160;-78
2022/04/09 05:57:31;;;;;;;7.97;1.45;;;6.10;99.90;;;;;;5033354;28;20036;-78
2022/04/09 05:59:57;;;;;;;3.78;1.35;;;7.20;99.90;;;;;;5045191;28;20517;-78
2022/04/09 06:02:23;;;;;;;4.97;1.25;;;8.00;99.90;;;;;;5021870;28;20175;-78
2022/04/09 06:04:48;;;;;;;7.28;1.60;;;8.70;99.90;;;;;;5037149;28;20127;-79
2022/04/09 06:07:14;;;;;;;5.07;1.35;;;9.30;99.90;;;;;;5032867;28;20041;-79
2022/04/09 06:09:41;;;;;;;7.15;1.77;;;9.40;99.90;;;;;;5047648;28;20477;-79
2022/04/09 06:12:12;;;;;;;8.40;1.60;;;9.00;99.90;;;;;;5032296;28;20041;-78
2022/04/09 06:14:38;;;;;;;8.38;1.48;;;8.40;99.90;;;;;;5055666;28;20041;-78
2022/04/09 06:17:04;;;;;;;7.60;1.52;;;7.70;99.90;;;;;;5051774;28;20040;-79
2022/04/09 06:19:31;;;;;;;7.10;1.70;;;7.30;99.90;;;;;;5032642;28;20390;-79
2022/04/09 06:21:57;;;;;;;5.35;1.23;;;6.90;99.90;;;;;;5055679;28;20048;-79
2022/04/09 06:24:22;;;;;;;8.10;1.42;;;6.60;99.90;;;;;;5030646;28;20490;-78
2022/04/09 06:26:48;;;;;;;9.05;1.70;;;6.30;99.90;;;;;;5020086;28;20123;-78
2022/04/09 06:29:14;;;;;;;3.50;1.00;;;6.10;99.90;;;;;;5042808;28;20037;-78
2022/04/09 06:31:39;;;;;;;7.80;1.58;;;5.90;99.90;;;;;;5042438;28;20056;-78
2022/04/09 06:34:05;;;;;;;6.22;1.33;;;5.80;99.90;;;;;;5029048;28;20041;-79
2022/04/09 06:36:30;;;;;;;7.18;1.60;;;5.80;99.90;;;;;;5042557;28;20041;-78
2022/04/09 06:38:56;;;;;;;11.63;1.40;;;5.70;99.90;;;;;;5050316;28;20123;-79
2022/04/09 06:41:21;;;;;;;6.72;1.45;;;5.70;99.90;;;;;;5037964;28;20040;-78
2022/04/09 06:43:48;;;;;;;9.88;1.45;;;6.90;99.90;;;;;;5049884;28;20153;-79
2022/04/09 06:46:14;;;;;;;7.55;1.23;;;8.40;99.90;;;;;;5048531;28;20091;-78
2022/04/09 06:48:40;;;;;;;7.80;1.50;;;9.80;99.90;;;;;;5051046;28;20127;-78
2022/04/09 06:51:06;;;;;;;8.93;1.75;;;10.90;99.90;;;;;;5051575;28;20149;-78
2022/04/09 06:53:31;;;;;;;6.38;1.55;;;11.50;99.90;;;;;;5069511;28;20053;-82
2022/04/09 06:55:57;;;;;;;5.90;1.35;;;12.20;99.90;;;;;;5053885;28;20067;-79
2022/04/09 06:58:23;;;;;;;8.63;1.27;;;11.80;99.90;;;;;;5070156;28;20040;-80
2022/04/09 07:00:48;;;;;;;7.70;1.63;;;11.60;99.90;;;;;;5053201;28;20110;-79
2022/04/09 07:03:14;;;;;;;11.07;1.67;;;12.10;99.90;;;;;;5037487;28;20482;-79
2022/04/09 07:05:42;;;;;;;8.00;1.55;;;12.40;99.90;;;;;;5054592;28;20135;-80
2022/04/09 07:08:09;;;;;;;6.32;1.55;;;13.10;99.10;;;;;;5035689;28;20045;-80
2022/04/09 07:10:37;;;;;;;5.13;1.40;;;13.30;98.70;;;;;;5070057;28;20041;-79
2022/04/09 07:13:03;;;;;;;8.07;1.45;;;13.60;97.20;;;;;;5059007;28;20044;-80
2022/04/09 07:15:29;;;;;;;5.07;1.25;;;14.00;97.90;;;;;;5053764;28;20037;-79
2022/04/09 07:17:55;;;;;;;5.05;1.25;;;14.50;96.00;;;;;;5042733;28;20051;-80
2022/04/09 07:20:21;;;;;;;8.10;1.52;;;15.00;94.00;;;;;;5052690;28;20084;-80
2022/04/09 07:22:47;;;;;;;7.65;1.80;;;15.00;93.50;;;;;;5032295;28;20124;-80
2022/04/09 07:25:13;;;;;;;7.63;1.45;;;15.30;91.30;;;;;;5028543;28;20127;-80
2022/04/09 07:27:42;;;;;;;6.43;1.40;;;14.90;93.00;;;;;;5050937;28;20072;-80
2022/04/09 07:30:14;;;;;;;7.68;1.35;;;15.00;93.70;;;;;;5069045;28;20125;-80
2022/04/09 07:32:40;;;;;;;6.25;1.40;;;15.10;93.30;;;;;;5046681;28;20037;-80
2022/04/09 07:35:07;;;;;;;6.78;1.48;;;15.20;92.40;;;;;;5043090;28;20155;-80
2022/04/09 07:37:32;;;;;;;5.88;1.30;;;15.30;91.00;;;;;;5046191;28;20029;-80
2022/04/09 07:39:58;;;;;;;7.43;1.42;;;14.50;92.00;;;;;;5050855;28;20052;-80
2022/04/09 07:42:24;;;;;;;6.22;2.00;;;14.60;93.20;;;;;;5031667;28;20052;-80
2022/04/09 07:44:50;;;;;;;8.20;1.45;;;13.80;93.40;;;;;;5057909;28;20036;-81
2022/04/09 07:47:16;;;;;;;5.13;1.17;;;12.80;96.70;;;;;;5049407;28;20419;-80
2022/04/09 07:49:44;;;;;;;6.78;1.52;;;12.30;98.40;;;;;;5052417;28;20033;-80
2022/04/09 07:52:13;;;;;;;7.40;1.17;;;11.70;99.90;;;;;;5036019;28;20064;-80
2022/04/09 07:54:39;;;;;;;5.63;1.30;;;11.20;99.90;;;;;;5061391;28;20045;-80
2022/04/09 07:57:05;;;;;;;4.72;1.08;;;10.80;99.90;;;;;;5048984;28;20045;-81
2022/04/09 07:59:31;;;;;;;5.88;1.00;;;10.40;99.90;;;;;;5051597;28;20486;-80
2022/04/09 08:01:56;;;;;;;9.13;1.50;;;10.00;99.90;;;;;;5050404;28;20045;-77
2022/04/09 08:04:22;;;;;;;8.18;1.50;;;9.80;99.90;;;;;;5050204;28;20436;-78
2022/04/09 08:06:47;;;;;;;5.05;1.08;;;9.30;99.90;;;;;;5051771;28;20433;-80
2022/04/09 08:09:13;;;;;;;5.47;1.27;;;9.10;99.90;;;;;;5048168;28;20453;-80
2022/04/09 08:11:39;;;;;;;6.68;1.23;;;9.00;99.90;;;;;;5050743;28;20171;-80
2022/04/09 08:14:04;;;;;;;6.78;1.20;;;8.70;99.90;;;;;;5051657;28;20045;-80
2022/04/09 08:16:30;;;;;;;5.50;1.05;;;9.00;99.90;;;;;;5051717;28;20389;-79
2022/04/09 08:18:56;;;;;;;6.55;1.27;;;9.20;99.90;;;;;;5050261;28;20098;-79
2022/04/09 08:21:21;;;;;;;7.65;1.20;;;9.20;99.90;;;;;;5051908;28;20033;-79
2022/04/09 08:23:47;;;;;;;8.13;2.10;;;9.30;99.90;;;;;;5034673;28;20132;-79
2022/04/09 08:26:13;;;;;;;8.35;1.80;;;9.50;99.90;;;;;;5055950;28;20041;-78
2022/04/09 08:28:39;;;;;;;7.20;1.50;;;9.70;99.90;;;;;;5035415;28;20421;-79
2022/04/09 08:31:06;;;;;;;9.02;1.65;;;9.90;99.90;;;;;;5032683;28;20036;-79
2022/04/09 08:33:32;;;;;;;6.43;1.13;;;9.90;99.90;;;;;;5063525;28;20087;-79
2022/04/09 08:35:58;;;;;;;7.80;1.42;;;9.80;99.90;;;;;;5045551;28;20044;-78
2022/04/09 08:38:23;;;;;;;7.70;1.60;;;9.70;99.90;;;;;;5050267;28;20522;-79
2022/04/09 08:40:50;;;;;;;8.80;1.42;;;9.90;99.90;;;;;;5051356;28;20036;-79
2022/04/09 08:43:16;;;;;;;5.95;1.25;;;10.00;99.90;;;;;;5050601;28;20497;-79
2022/04/09 08:45:41;;;;;;;10.50;1.55;;;10.00;99.90;;;;;;5051457;28;20049;-78
2022/04/09 08:48:08;;;;;;;6.72;1.73;;;9.80;99.90;;;;;;5049653;28;20124;-79
2022/04/09 08:50:35;;;;;;;11.45;2.25;;;9.70;99.90;;;;;;5051104;28;21457;-79
2022/04/09 08:53:06;;;;;;;6.63;0.98;;;9.70;99.90;;;;;;5043176;28;20471;-79
2022/04/09 08:55:34;;;;;;;7.38;1.60;;;9.70;99.90;;;;;;5039318;28;20041;-79
2022/04/09 08:57:59;;;;;;;8.02;1.30;;;9.80;99.90;;;;;;5047144;28;20041;-79
2022/04/09 09:00:25;;;;;;;5.15;1.45;;;9.60;99.90;;;;;;5047183;28;20135;-79
2022/04/09 09:02:53;;;;;;;6.70;1.30;;;9.60;99.90;;;;;;5032395;28;20549;-79
2022/04/09 09:05:30;;;;;;;6.40;1.30;;;9.60;99.90;;;;;;5057351;28;20475;-79
2022/04/09 09:07:55;;;;;;;6.40;1.20;;;9.90;99.90;;;;;;5028980;28;20049;-79
2022/04/09 09:10:21;;;;;;;6.47;1.40;;;10.20;99.90;;;;;;5043190;28;20815;-80
2022/04/09 09:13:11;;;;;;;7.60;1.55;;;10.30;99.90;;;;;;5027754;28;20170;-79
2022/04/09 09:15:51;;;;;;;7.20;1.50;;;10.60;99.90;;;;;;5037713;28;20105;-78
2022/04/09 09:18:25;;;;;;;6.32;1.38;;;10.70;99.80;;;;;;5032156;28;20182;-78
2022/04/09 09:20:53;;;;;;;7.60;1.38;;;10.70;99.90;;;;;;5050856;28;20036;-78
2022/04/09 09:23:30;;;;;;;6.50;1.42;;;10.40;99.90;;;;;;5063732;28;20091;-78
2022/04/09 09:25:58;;;;;;;6.90;1.42;;;9.80;99.90;;;;;;5049788;28;20391;-78
2022/04/09 09:28:27;;;;;;;7.78;1.70;;;9.10;99.90;;;;;;5050334;28;20037;-78
2022/04/09 09:30:54;;;;;;;7.93;1.38;;;8.50;99.90;;;;;;5034208;28;20416;-78
2022/04/09 09:33:20;;;;;;;4.07;0.95;;;8.10;99.90;;;;;;5031568;28;20044;-76
2022/04/09 09:35:56;;;;;;;6.10;1.40;;;8.20;99.90;;;;;;5050459;28;20696;-79
2022/04/09 09:38:23;;;;;;;7.75;1.05;;;7.80;99.90;;;;;;5033221;28;20505;-78
2022/04/09 09:40:49;;;;;;;8.02;1.40;;;7.60;99.90;;;;;;5050394;28;20119;-78
2022/04/09 09:43:16;;;;;;;9.60;1.63;;;7.50;99.90;;;;;;5040164;28;20041;-79
2022/04/09 09:45:43;;;;;;;5.65;1.13;;;7.00;99.90;;;;;;5032713;28;20474;-79
2022/04/09 09:48:18;;;;;;;9.27;1.27;;;6.90;99.90;;;;;;5051065;28;20060;-78
2022/04/09 09:50:45;;;;;;;5.50;1.27;;;7.00;99.90;;;;;;5049331;28;20044;-78
2022/04/09 09:53:10;;;;;;;5.63;1.30;;;7.30;99.90;;;;;;5050390;28;20045;-78
2022/04/09 09:55:43;;;;;;;6.47;1.30;;;7.70;99.90;;;;;;5048160;28;20037;-79
2022/04/09 09:58:16;;;;;;;6.75;2.03;;;8.00;99.90;;;;;;5046713;28;21887;-79
2022/04/09 10:00:43;;;;;;;6.40;1.10;;;8.40;99.90;;;;;;5046708;28;20037;-79
2022/04/09 10:03:13;;;;;;;6.60;1.55;;;8.70;99.90;;;;;;5046261;28;20102;-78
2022/04/09 10:05:39;;;;;;;6.63;1.60;;;9.10;99.90;;;;;;5047529;28;20057;-78
2022/04/09 10:08:05;;;;;;;7.03;1.25;;;9.40;99.90;;;;;;5051034;28;20052;-78
2022/04/09 10:10:35;;;;;;;8.85;1.35;;;9.70;99.90;;;;;;5047332;28;20041;-78
2022/04/09 10:13:02;;;;;;;7.05;1.30;;;9.60;99.90;;;;;;5062885;28;20055;-78
2022/04/09 10:15:28;;;;;;;8.07;1.50;;;8.80;99.90;;;;;;5031911;28;20041;-78
2022/04/09 10:17:57;;;;;;;5.65;1.20;;;8.50;99.90;;;;;;5050567;28;20046;-78
2022/04/09 10:20:25;;;;;;;6.55;1.40;;;8.30;99.90;;;;;;5042886;28;20746;-78
2022/04/09 10:22:55;;;;;;;4.63;1.25;;;8.00;99.90;;;;;;5046848;28;20041;-78
2022/04/09 10:25:25;;;;;;;5.90;1.08;;;7.60;99.90;;;;;;5053547;28;20036;-78
2022/04/09 10:27:54;;;;;;;4.35;0.98;;;7.50;99.90;;;;;;5047698;28;20497;-78
2022/04/09 10:30:22;;;;;;;2.33;0.68;;;7.50;99.90;;;;;;5046187;28;20033;-78
2022/04/09 10:32:51;;;;;;;2.45;0.57;;;7.70;99.90;;;;;;5043772;28;20040;-78
2022/04/09 10:35:27;;;;;;;2.75;0.60;;;7.90;99.90;;;;;;5035687;28;20037;-78
2022/04/09 10:38:14;;;;;;;4.18;0.80;;;8.10;99.90;;;;;;5035958;28;20040;-78
2022/04/09 10:40:43;;;;;;;4.13;0.60;;;8.20;99.90;;;;;;5049110;28;20102;-78
2022/04/09 10:43:10;;;;;;;2.38;0.63;;;8.40;99.90;;;;;;5037023;28;20136;-78
2022/04/09 10:46:15;;;;;;;1.90;0.82;;;8.60;99.90;;;;;;5035675;28;20479;-78
2022/04/09 10:48:42;;;;;;;3.60;0.90;;;8.80;99.90;;;;;;5050235;28;20423;-78
2022/04/09 10:51:18;;;;;;;3.25;1.00;;;9.10;99.90;;;;;;5049095;28;20052;-78
2022/04/09 10:53:48;;;;;;;3.08;0.90;;;9.20;99.90;;;;;;5051673;28;20053;-78
2022/04/09 10:56:26;;;;;;;6.38;0.90;;;9.30;99.90;;;;;;5051303;28;20040;-78
2022/04/09 10:59:13;;;;;;;4.43;0.82;;;9.30;99.90;;;;;;5044590;28;20052;-78
2022/04/09 11:01:50;;;;;;;4.20;0.70;;;9.40;99.90;;;;;;5049710;28;20045;-78
2022/04/09 11:04:32;;;;;;;4.85;0.73;;;9.30;99.90;;;;;;5048582;28;20044;-78
2022/04/09 11:07:15;;;;;;;5.55;0.85;;;9.20;99.90;;;;;;5035380;28;20124;-78
2022/04/09 11:09:51;;;;;;;4.00;0.77;;;8.90;99.90;;;;;;5029313;28;20033;-78
2022/04/09 11:12:21;;;;;;;5.00;1.02;;;8.60;99.90;;;;;;5032206;28;20581;-78
2022/04/09 11:14:54;;;;;;;3.88;1.00;;;8.70;99.90;;;;;;5052249;28;20033;-81
2022/04/09 11:17:28;;;;;;;4.35;1.10;;;8.70;99.90;;;;;;5050674;28;20582;-78
2022/04/09 11:19:54;;;;;;;5.43;1.38;;;9.00;99.90;;;;;;5034582;28;20550;-77
2022/04/09 11:22:21;;;;;;;5.22;1.00;;;9.10;99.90;;;;;;5052904;28;20072;-77
2022/04/09 11:24:47;;;;;;;5.22;0.82;;;9.10;99.90;;;;;;5047422;28;20041;-77
2022/04/09 11:27:12;;;;;;;4.32;0.82;;;9.20;99.90;;;;;;5065030;28;20049;-77
2022/04/09 11:29:40;;;;;;;2.88;0.68;;;9.10;99.90;;;;;;5035057;28;20036;-77
2022/04/09 11:32:06;;;;;;;4.15;0.82;;;8.80;99.90;;;;;;5038032;28;20127;-78
2022/04/09 11:34:58;;;;;;;3.72;1.00;;;8.60;99.90;;;;;;5051100;28;20048;-78
2022/04/09 11:37:26;;;;;;;5.15;0.90;;;8.50;99.90;;;;;;5044536;28;20068;-77
2022/04/09 11:39:53;;;;;;;6.80;1.55;;;8.40;99.90;;;;;;5050204;28;20048;-77
2022/04/09 11:42:19;;;;;;;8.15;1.17;;;8.70;99.90;;;;;;5048267;28;20044;-77
2022/04/09 11:44:45;;;;;;;4.30;0.80;;;8.90;99.90;;;;;;5051788;28;20099;-77
2022/04/09 11:47:16;;;;;;;7.05;1.35;;;9.00;99.90;;;;;;5030855;28;20047;-77
2022/04/09 11:49:47;;;;;;;6.28;1.27;;;9.00;99.90;;;;;;5051244;28;20048;-77
2022/04/09 11:52:25;;;;;;;7.30;1.35;;;8.80;99.90;;;;;;5048780;28;20068;-77
2022/04/09 11:54:51;;;;;;;5.00;1.00;;;8.80;99.90;;;;;;5028102;28;20037;-77
2022/04/09 11:57:17;;;;;;;7.20;0.93;;;8.70;99.90;;;;;;5028941;28;20040;-77
2022/04/09 11:59:49;;;;;;;4.32;0.70;;;8.70;99.90;;;;;;5051798;28;20044;-77
2022/04/09 12:02:18;;;;;;;;;;;8.80;99.90;;;;;;5035652;28;20433;-77
2022/04/09 12:04:43;;;;;;;7.20;1.10;;;8.90;99.90;;;;;;5058868;28;19999;-77
2022/04/09 12:07:09;;;;;;;5.03;1.40;;;9.20;99.90;;;;;;5052185;28;20124;-77
2022/04/09 12:09:36;;;;;;;3.28;0.80;;;9.50;99.90;;;;;;5056447;28;20063;-77
2022/04/09 12:12:02;;;;;;;2.80;0.40;;;9.90;99.90;;;;;;5049604;28;20041;-77
2022/04/09 12:14:28;;;;;;;3.63;1.80;;;10.00;99.90;;;;;;5050878;28;20567;-77
2022/04/09 12:16:54;;;;;;;2.00;1.20;;;9.90;99.90;;;;;;5052404;28;20542;-77
2022/04/09 12:19:31;;;;;;;5.68;1.63;;;9.80;99.90;;;;;;5047361;28;20029;-77
2022/04/09 12:22:11;;;;;;;8.25;4.22;;;9.50;99.90;;;;;;5050500;28;20284;-77
2022/04/09 12:24:50;;;;;;;5.95;1.73;;;9.10;99.90;;;;;;5028376;28;20132;-77
2022/04/09 12:27:16;;;;;;;7.30;6.03;;;9.00;99.90;;;;;;5034614;28;20472;-77
2022/04/09 12:29:55;;;;;;;7.25;1.88;;;8.70;99.90;;;;;;5035380;28;20102;-77
2022/04/09 12:32:24;;;;;;;6.25;1.50;;;8.60;99.90;;;;;;5050594;28;20069;-77
2022/04/09 12:34:52;;;;;;;3.70;1.38;;;8.70;99.90;;;;;;5048894;28;20419;-77
2022/04/09 12:37:18;;;;;;;3.13;0.90;;;8.90;99.90;;;;;;5051489;28;20642;-77
2022/04/09 12:39:44;;;;;;;2.53;0.73;;;9.20;99.90;;;;;;5045840;28;20059;-77
2022/04/09 12:42:10;;;;;;;3.90;0.85;;;9.70;99.90;;;;;;5046401;28;20041;-77
2022/04/09 12:44:37;;;;;;;1.98;0.70;;;9.80;99.90;;;;;;5050378;28;20048;-77
2022/04/09 12:47:06;;;;;;;2.08;0.63;;;9.80;99.90;;;;;;5048260;28;20049;-77
2022/04/09 12:49:36;;;;;;;3.28;0.90;;;10.20;99.90;;;;;;5049899;28;20041;-77
2022/04/09 12:52:04;;;;;;;2.53;0.65;;;10.30;99.90;;;;;;5050259;28;20399;-77
2022/04/09 12:54:31;;;;;;;2.08;1.10;;;10.40;99.90;;;;;;5046237;28;20044;-77
2022/04/09 12:57:14;;;;;;;1.27;0.77;;;10.70;99.90;;;;;;5051480;28;20465;-77